Time;durP1;ratioP1;P1;durP2;ratioP2;P2;SDS_P1;SDS_P2;PMS_P1;PMS_P2;Temp;Humidity;BMP_temperature;BMP_pressure;BME280_temperature;BME280_humidity;BME280_pressure;Samples;Min_cycle;Max_cycle;Signal;HPM_P1;HPM_P2
2022/07/30 00:00:06;;;;;;;7.83;4.20;;;18.30;99.90;;;;;;4930717;29;20230;-77
2022/07/30 00:02:33;;;;;;;4.40;4.00;;;18.30;99.90;;;;;;4934588;29;20231;-78
2022/07/30 00:05:01;;;;;;;5.33;4.30;;;18.20;99.90;;;;;;4931350;29;20218;-78
2022/07/30 00:07:28;;;;;;;4.53;4.13;;;18.20;99.90;;;;;;4934868;29;20191;-78
2022/07/30 00:09:55;;;;;;;5.10;4.30;;;18.10;99.90;;;;;;4932252;29;20223;-78
2022/07/30 00:12:22;;;;;;;6.07;4.13;;;18.10;99.90;;;;;;4934085;29;20224;-78
2022/07/30 00:14:48;;;;;;;6.50;5.90;;;18.00;99.90;;;;;;4928804;29;20204;-78
2022/07/30 00:17:15;;;;;;;7.80;7.07;;;18.00;99.90;;;;;;4933455;29;20219;-78
2022/07/30 00:19:42;;;;;;;6.83;6.23;;;17.90;99.90;;;;;;4927282;29;20280;-78
2022/07/30 00:22:10;;;;;;;6.83;6.30;;;17.90;99.90;;;;;;4927521;29;20566;-78
2022/07/30 00:24:37;;;;;;;6.90;6.20;;;17.80;99.90;;;;;;4929318;29;20200;-78
2022/07/30 00:27:04;;;;;;;6.80;6.23;;;17.80;99.90;;;;;;4927471;29;20204;-77
2022/07/30 00:29:31;;;;;;;6.20;5.60;;;17.80;99.90;;;;;;4930514;29;20630;-78
2022/07/30 00:31:58;;;;;;;7.30;4.63;;;17.70;99.90;;;;;;4936888;29;20214;-78
2022/07/30 00:34:25;;;;;;;7.53;4.87;;;17.70;99.90;;;;;;4933217;29;20218;-78
2022/07/30 00:36:52;;;;;;;5.77;5.27;;;17.60;99.90;;;;;;4932001;29;20192;-78
2022/07/30 00:39:20;;;;;;;6.53;4.87;;;17.60;99.90;;;;;;4929552;29;20293;-78
2022/07/30 00:41:55;;;;;;;6.23;5.43;;;17.50;99.90;;;;;;4929812;29;20203;-78
2022/07/30 00:44:22;;;;;;;6.90;5.53;;;17.50;99.90;;;;;;4929427;29;20198;-79
2022/07/30 00:46:48;;;;;;;7.80;4.97;;;17.50;99.90;;;;;;4931922;29;20207;-78
2022/07/30 00:49:15;;;;;;;5.90;5.30;;;17.40;99.90;;;;;;4928440;29;20268;-78
2022/07/30 00:51:42;;;;;;;6.37;5.00;;;17.40;99.90;;;;;;4924472;29;20199;-78
2022/07/30 00:54:09;;;;;;;5.03;4.53;;;17.40;99.90;;;;;;4930397;29;20206;-78
2022/07/30 00:56:38;;;;;;;5.80;5.03;;;17.50;99.90;;;;;;4928142;29;20210;-78
2022/07/30 00:59:05;;;;;;;5.37;4.67;;;17.50;99.90;;;;;;4930594;29;20294;-78
2022/07/30 01:01:32;;;;;;;5.30;4.80;;;17.50;99.90;;;;;;4930002;29;20228;-78
2022/07/30 01:03:59;;;;;;;5.97;4.90;;;17.50;99.90;;;;;;4934119;29;20282;-78
2022/07/30 01:06:26;;;;;;;5.50;5.03;;;17.60;99.90;;;;;;4932307;29;20204;-78
2022/07/30 01:08:54;;;;;;;6.70;6.10;;;17.60;99.90;;;;;;4933300;29;20200;-78
2022/07/30 01:11:21;;;;;;;6.43;5.83;;;17.60;99.90;;;;;;4933257;29;20660;-78
2022/07/30 01:13:49;;;;;;;7.30;6.17;;;17.70;99.90;;;;;;4926725;29;20234;-78
2022/07/30 01:16:16;;;;;;;5.90;5.40;;;17.70;99.90;;;;;;4927075;29;20195;-78
2022/07/30 01:21:36;;;;;;;6.40;5.80;;;17.70;99.90;;;;;;4923374;29;20230;-78
2022/07/30 01:24:21;;;;;;;6.43;5.93;;;17.70;99.90;;;;;;4936625;29;20202;-78
2022/07/30 01:26:51;;;;;;;6.30;5.80;;;17.60;99.90;;;;;;4936465;29;20695;-78
2022/07/30 01:29:19;;;;;;;6.63;6.03;;;17.60;99.90;;;;;;4929466;29;20310;-78
2022/07/30 01:31:47;;;;;;;6.00;5.60;;;17.50;99.90;;;;;;4933369;29;20230;-78
2022/07/30 01:34:16;;;;;;;6.43;5.90;;;17.50;99.90;;;;;;4946662;29;20213;-78
2022/07/30 01:36:46;;;;;;;5.03;4.63;;;17.50;99.90;;;;;;4932038;29;20234;-78
2022/07/30 01:39:14;;;;;;;5.20;4.80;;;17.50;99.90;;;;;;4938009;29;20290;-78
2022/07/30 01:41:42;;;;;;;4.73;4.33;;;17.50;99.90;;;;;;4929463;29;20222;-78
2022/07/30 01:44:13;;;;;;;5.00;4.50;;;17.50;99.90;;;;;;4928143;29;20678;-78
2022/07/30 01:46:40;;;;;;;4.40;4.00;;;17.50;99.90;;;;;;4934322;29;20188;-78
2022/07/30 01:49:11;;;;;;;4.13;3.80;;;17.50;99.90;;;;;;4936012;29;20624;-78
2022/07/30 01:51:38;;;;;;;4.50;4.10;;;17.50;99.90;;;;;;4936161;29;20202;-78
2022/07/30 01:54:07;;;;;;;5.40;4.43;;;17.50;99.90;;;;;;4938774;29;20290;-78
2022/07/30 01:56:36;;;;;;;4.73;4.10;;;17.40;99.90;;;;;;4930246;29;20196;-78
2022/07/30 01:59:06;;;;;;;4.50;4.10;;;17.40;99.90;;;;;;4929279;29;20212;-78
2022/07/30 02:01:34;;;;;;;4.70;4.30;;;17.40;99.90;;;;;;4930095;29;20231;-78
2022/07/30 02:04:03;;;;;;;4.40;4.00;;;17.40;99.90;;;;;;4934745;29;20198;-78
2022/07/30 02:06:34;;;;;;;4.60;4.20;;;17.40;99.90;;;;;;4949874;29;20199;-78
2022/07/30 02:09:06;;;;;;;4.60;4.20;;;17.40;99.90;;;;;;4934709;29;20207;-78
2022/07/30 02:14:26;;;;;;;4.30;3.90;;;17.40;99.90;;;;;;4897222;29;20727;-78
2022/07/30 02:16:57;;;;;;;4.60;4.20;;;17.40;99.90;;;;;;4935405;29;20214;-78
2022/07/30 02:19:29;;;;;;;4.30;4.00;;;17.40;99.90;;;;;;4943097;29;20227;-78
2022/07/30 02:22:04;;;;;;;4.90;4.40;;;17.40;99.90;;;;;;4935730;29;20280;-78
2022/07/30 02:24:33;;;;;;;4.53;4.13;;;17.40;99.90;;;;;;4930055;29;20308;-78
2022/07/30 02:27:07;;;;;;;6.80;4.40;;;17.30;99.90;;;;;;4932213;29;20732;-78
2022/07/30 02:29:36;;;;;;;5.07;4.63;;;17.30;99.90;;;;;;4933084;29;20234;-77
2022/07/30 02:32:09;;;;;;;5.03;4.53;;;17.30;99.90;;;;;;4935740;29;20195;-78
2022/07/30 02:34:40;;;;;;;5.33;4.60;;;17.30;99.90;;;;;;4946244;28;20698;-78
2022/07/30 02:37:08;;;;;;;4.77;4.37;;;17.30;99.90;;;;;;4935452;29;20230;-78
2022/07/30 02:39:39;;;;;;;5.77;5.27;;;17.20;99.90;;;;;;4929739;29;20236;-78
2022/07/30 02:42:07;;;;;;;5.27;4.77;;;17.10;99.90;;;;;;4929134;29;20202;-78
2022/07/30 02:44:37;;;;;;;5.40;4.80;;;17.10;99.90;;;;;;4948266;29;20210;-78
2022/07/30 02:47:05;;;;;;;4.83;4.33;;;17.00;99.90;;;;;;4933187;29;20200;-78
2022/07/30 02:49:56;;;;;;;5.23;3.93;;;17.00;99.90;;;;;;4944899;28;20229;-78
2022/07/30 02:52:26;;;;;;;5.47;4.57;;;17.00;99.90;;;;;;4934948;29;20199;-78
2022/07/30 02:54:56;;;;;;;4.50;4.10;;;17.00;99.90;;;;;;4934629;29;20199;-78
2022/07/30 02:57:24;;;;;;;4.83;4.30;;;17.00;99.90;;;;;;4920196;29;20838;-78
2022/07/30 02:59:53;;;;;;;4.77;4.30;;;17.00;99.90;;;;;;4927225;29;20276;-78
2022/07/30 03:02:22;;;;;;;4.77;4.33;;;17.00;99.90;;;;;;4932073;29;20208;-78
2022/07/30 03:04:50;;;;;;;4.97;4.23;;;16.90;99.90;;;;;;4927406;29;20815;-79
2022/07/30 03:07:17;;;;;;;5.33;4.37;;;16.90;99.90;;;;;;4926618;29;20202;-78
2022/07/30 03:09:46;;;;;;;4.60;4.07;;;16.90;99.90;;;;;;4931288;29;20238;-78
2022/07/30 03:12:14;;;;;;;4.80;4.30;;;16.80;99.90;;;;;;4933349;29;20205;-78
2022/07/30 03:14:42;;;;;;;4.33;4.00;;;16.80;99.90;;;;;;4930580;29;20210;-75
2022/07/30 03:17:10;;;;;;;4.60;4.20;;;16.80;99.90;;;;;;4935032;29;20206;-78
2022/07/30 03:19:40;;;;;;;5.43;4.40;;;16.80;99.90;;;;;;4928688;29;20228;-78
2022/07/30 03:22:08;;;;;;;4.80;4.40;;;16.80;99.90;;;;;;4933558;29;20198;-79
2022/07/30 03:24:37;;;;;;;6.73;4.50;;;16.70;99.90;;;;;;4931359;29;20210;-78
2022/07/30 03:27:06;;;;;;;5.70;5.10;;;16.70;99.90;;;;;;4932801;29;20297;-78
2022/07/30 03:29:34;;;;;;;5.50;4.90;;;16.70;99.90;;;;;;4929155;29;20255;-78
2022/07/30 03:32:02;;;;;;;4.10;3.80;;;16.60;99.90;;;;;;4932988;29;20234;-78
2022/07/30 03:34:31;;;;;;;4.50;4.10;;;16.60;99.90;;;;;;4927422;29;20750;-78
2022/07/30 03:37:01;;;;;;;4.47;4.03;;;16.60;99.90;;;;;;4945750;29;20300;-79
2022/07/30 03:39:29;;;;;;;4.47;4.07;;;16.50;99.90;;;;;;4935390;29;20316;-80
2022/07/30 03:41:56;;;;;;;4.53;4.13;;;16.50;99.90;;;;;;4929839;29;20295;-78
2022/07/30 03:44:23;;;;;;;4.20;3.80;;;16.50;99.90;;;;;;4933373;29;20666;-79
2022/07/30 03:46:52;;;;;;;4.43;4.03;;;16.50;99.90;;;;;;4935177;28;20218;-79
2022/07/30 03:49:23;;;;;;;4.50;4.10;;;16.50;99.90;;;;;;4934865;29;20271;-79
2022/07/30 03:51:52;;;;;;;4.17;3.80;;;16.50;99.90;;;;;;4936190;29;20207;-79
2022/07/30 03:54:21;;;;;;;4.83;4.33;;;16.50;99.90;;;;;;4935057;29;20222;-78
2022/07/30 03:57:06;;;;;;;5.33;4.83;;;16.40;99.90;;;;;;4935253;29;20693;-79
2022/07/30 03:59:40;;;;;;;4.57;4.17;;;16.40;99.90;;;;;;4935070;29;20229;-78
2022/07/30 04:02:07;;;;;;;6.07;4.63;;;16.30;99.90;;;;;;4936426;29;20205;-79
2022/07/30 04:04:53;;;;;;;4.80;4.40;;;16.30;99.90;;;;;;4934968;29;20211;-79
2022/07/30 04:07:21;;;;;;;4.83;4.43;;;16.20;99.90;;;;;;4931146;29;20867;-78
2022/07/30 04:09:49;;;;;;;4.43;4.03;;;16.20;99.90;;;;;;4934889;29;20595;-79
2022/07/30 04:12:28;;;;;;;6.13;4.70;;;16.20;99.90;;;;;;4929951;29;20569;-79
2022/07/30 04:14:56;;;;;;;5.23;4.33;;;16.30;99.90;;;;;;4934665;29;20220;-79
2022/07/30 04:17:28;;;;;;;5.20;4.53;;;16.30;99.90;;;;;;4934889;29;20267;-79
2022/07/30 04:20:01;;;;;;;5.17;4.67;;;16.30;99.90;;;;;;4943132;28;20676;-78
2022/07/30 04:22:32;;;;;;;5.30;4.80;;;16.40;99.90;;;;;;4933093;29;20587;-79
2022/07/30 04:25:01;;;;;;;5.87;4.83;;;16.40;99.90;;;;;;4934383;28;20201;-78
2022/07/30 04:27:29;;;;;;;5.07;4.57;;;16.40;99.90;;;;;;4933213;29;20660;-79
2022/07/30 04:29:56;;;;;;;5.20;4.70;;;16.40;99.90;;;;;;4934463;29;20401;-79
2022/07/30 04:32:23;;;;;;;6.23;4.73;;;16.50;99.90;;;;;;4948983;28;20206;-79
2022/07/30 04:35:12;;;;;;;4.93;4.40;;;16.50;99.90;;;;;;4931174;29;20632;-79
2022/07/30 04:38:03;;;;;;;4.53;4.13;;;16.60;99.90;;;;;;4934875;29;20213;-78
2022/07/30 04:40:33;;;;;;;4.97;4.57;;;16.60;99.90;;;;;;4928785;29;20227;-79
2022/07/30 04:45:41;;;;;;;4.97;4.47;;;16.70;99.90;;;;;;4930422;29;20294;-80
2022/07/30 04:48:08;;;;;;;5.10;4.60;;;16.70;99.90;;;;;;4933287;29;20206;-84
2022/07/30 04:50:59;;;;;;;5.10;4.40;;;16.80;99.90;;;;;;4934737;29;20237;-80
2022/07/30 04:53:28;;;;;;;5.07;4.57;;;16.80;99.90;;;;;;4945137;29;20218;-80
2022/07/30 04:56:02;;;;;;;4.83;4.37;;;16.90;99.90;;;;;;4930295;29;20212;-80
2022/07/30 04:58:31;;;;;;;4.70;4.30;;;17.00;99.90;;;;;;4943073;28;20217;-80
2022/07/30 05:01:00;;;;;;;5.93;4.70;;;17.10;99.90;;;;;;4935362;29;20215;-80
2022/07/30 05:03:32;;;;;;;5.03;4.53;;;17.20;99.90;;;;;;4931311;29;20206;-80
2022/07/30 05:06:00;;;;;;;4.47;4.07;;;17.30;99.90;;;;;;4932848;29;20197;-80
2022/07/30 05:08:31;;;;;;;4.50;4.10;;;17.50;99.90;;;;;;4936470;29;20210;-80
2022/07/30 05:11:03;;;;;;;4.97;4.47;;;17.60;99.90;;;;;;4933076;29;20219;-80
2022/07/30 05:13:29;;;;;;;4.80;4.27;;;17.70;99.90;;;;;;4936385;29;20697;-80
2022/07/30 05:15:57;;;;;;;4.83;4.43;;;17.80;99.90;;;;;;4935947;29;20202;-79
2022/07/30 05:18:25;;;;;;;8.20;7.60;;;17.90;99.90;;;;;;4934779;29;20201;-81
2022/07/30 05:20:52;;;;;;;8.63;7.93;;;18.00;99.90;;;;;;4935446;29;20222;-80
2022/07/30 05:23:29;;;;;;;8.60;8.00;;;18.20;99.90;;;;;;4936091;29;20690;-81
2022/07/30 05:26:06;;;;;;;8.60;8.00;;;18.30;99.90;;;;;;4936296;29;20236;-81
2022/07/30 05:28:40;;;;;;;4.53;4.13;;;18.50;99.90;;;;;;4934869;29;20254;-78
2022/07/30 05:31:11;;;;;;;4.60;4.20;;;18.60;99.90;;;;;;4928683;29;20291;-77
2022/07/30 05:33:39;;;;;;;7.60;7.10;;;18.70;99.90;;;;;;4934848;29;20224;-78
2022/07/30 05:36:07;;;;;;;6.67;6.17;;;18.80;99.90;;;;;;4933813;29;20238;-79
2022/07/30 05:38:38;;;;;;;4.67;4.30;;;18.90;99.90;;;;;;4929188;29;20589;-80
2022/07/30 05:41:27;;;;;;;4.70;4.30;;;19.10;99.90;;;;;;4936035;29;20290;-80
2022/07/30 05:44:03;;;;;;;9.20;8.60;;;19.30;99.90;;;;;;4936205;29;20274;-79
2022/07/30 05:46:31;;;;;;;6.97;5.20;;;19.50;99.90;;;;;;4935991;29;20712;-79
2022/07/30 05:48:58;;;;;;;5.00;4.40;;;19.50;99.90;;;;;;4954237;28;20200;-79
2022/07/30 05:51:25;;;;;;;6.20;5.60;;;19.70;99.90;;;;;;4933153;29;20252;-80
2022/07/30 05:53:52;;;;;;;9.53;8.83;;;20.10;99.90;;;;;;4937693;29;20229;-81
2022/07/30 05:56:44;;;;;;;7.13;5.93;;;20.60;99.90;;;;;;4945021;29;20676;-81
2022/07/30 05:59:18;;;;;;;6.47;5.97;;;21.20;99.90;;;;;;4935619;29;20250;-81
2022/07/30 06:02:05;;;;;;;6.40;4.10;;;21.20;99.90;;;;;;4935504;29;20955;-81
2022/07/30 06:04:51;;;;;;;6.33;4.10;;;21.20;99.90;;;;;;4936707;29;20684;-81
2022/07/30 06:07:18;;;;;;;6.60;4.70;;;21.20;99.90;;;;;;4935064;29;20203;-80
2022/07/30 06:09:45;;;;;;;9.50;8.80;;;21.20;99.90;;;;;;4935192;29;20230;-81
2022/07/30 06:12:14;;;;;;;5.23;4.80;;;21.20;99.90;;;;;;4932653;29;20231;-82
2022/07/30 06:14:41;;;;;;;5.13;4.43;;;21.10;99.90;;;;;;4932119;29;20219;-80
2022/07/30 06:17:12;;;;;;;4.37;3.97;;;21.20;99.90;;;;;;4927820;29;20554;-80
2022/07/30 06:20:06;;;;;;;9.17;8.47;;;21.30;99.90;;;;;;4934462;29;20230;-80
2022/07/30 06:22:44;;;;;;;4.47;4.03;;;21.40;99.90;;;;;;4944379;29;20584;-77
2022/07/30 06:25:20;;;;;;;5.00;4.60;;;21.40;99.90;;;;;;4927865;29;20566;-76
2022/07/30 06:27:48;;;;;;;7.60;6.93;;;21.40;99.90;;;;;;4941914;29;20215;-75
2022/07/30 06:30:16;;;;;;;7.73;7.13;;;21.40;99.90;;;;;;4930358;29;20227;-75
2022/07/30 06:32:44;;;;;;;5.90;5.40;;;21.50;99.90;;;;;;4934238;29;20234;-76
2022/07/30 06:35:12;;;;;;;5.50;5.10;;;21.90;99.90;;;;;;4926647;29;20215;-78
2022/07/30 06:37:38;;;;;;;5.80;4.70;;;22.10;99.90;;;;;;4936790;29;20203;-77
2022/07/30 06:40:07;;;;;;;5.07;4.57;;;22.40;99.90;;;;;;4935148;29;20246;-78
2022/07/30 06:42:33;;;;;;;7.10;6.50;;;22.70;99.90;;;;;;4930675;29;20255;-76
2022/07/30 06:45:22;;;;;;;6.10;5.50;;;23.10;99.90;;;;;;4933388;29;20280;-76
2022/07/30 06:48:21;;;;;;;7.33;6.73;;;23.60;99.90;;;;;;4913784;29;20207;-76
2022/07/30 06:50:48;;;;;;;4.97;4.50;;;24.10;99.90;;;;;;4934816;29;20229;-77
2022/07/30 06:53:15;;;;;;;7.30;6.67;;;24.40;99.90;;;;;;4950387;29;20293;-78
2022/07/30 06:56:01;;;;;;;5.63;4.73;;;24.80;99.90;;;;;;4933672;29;20207;-79
2022/07/30 06:58:35;;;;;;;6.03;5.53;;;25.00;99.90;;;;;;4938813;28;20210;-82
2022/07/30 07:01:26;;;;;;;6.00;5.47;;;25.10;99.90;;;;;;4930906;29;20632;-77
2022/07/30 07:03:55;;;;;;;7.90;7.27;;;25.50;99.90;;;;;;4932036;29;20282;-76
2022/07/30 07:06:22;;;;;;;6.77;4.03;;;25.60;99.90;;;;;;4932192;29;20209;-76
2022/07/30 07:08:48;;;;;;;7.57;6.30;;;25.80;99.90;;;;;;4934082;29;20214;-76
2022/07/30 07:11:20;;;;;;;7.60;7.00;;;26.10;99.90;;;;;;4931020;29;20615;-76
2022/07/30 07:13:51;;;;;;;6.87;6.10;;;26.40;99.90;;;;;;4933701;29;20573;-76
2022/07/30 07:16:28;;;;;;;8.63;7.93;;;26.50;99.90;;;;;;4933865;29;20214;-76
2022/07/30 07:18:56;;;;;;;6.07;5.33;;;26.70;99.90;;;;;;4932129;28;20210;-77
2022/07/30 07:21:24;;;;;;;8.47;5.60;;;27.00;99.90;;;;;;4935600;29;20622;-76
2022/07/30 07:23:53;;;;;;;7.97;7.00;;;26.90;99.90;;;;;;4932860;29;20299;-76
2022/07/30 07:26:40;;;;;;;7.67;6.63;;;27.20;99.90;;;;;;4925545;29;20283;-77
2022/07/30 07:29:09;;;;;;;8.80;8.00;;;27.40;99.90;;;;;;4932852;29;20728;-76
2022/07/30 07:31:37;;;;;;;8.03;7.30;;;27.60;99.90;;;;;;4929352;29;20238;-76
2022/07/30 07:34:04;;;;;;;8.47;7.67;;;27.70;99.90;;;;;;4928603;29;20759;-77
2022/07/30 07:36:31;;;;;;;7.40;6.70;;;28.00;99.90;;;;;;4933018;29;20206;-76
2022/07/30 07:38:58;;;;;;;8.40;7.67;;;28.00;99.90;;;;;;4928748;29;20207;-76
2022/07/30 07:41:26;;;;;;;9.10;7.53;;;28.00;99.90;;;;;;4928608;29;20203;-76
2022/07/30 07:43:53;;;;;;;8.10;7.37;;;28.10;99.90;;;;;;4927504;29;20215;-76
2022/07/30 07:46:26;;;;;;;8.33;7.57;;;28.10;99.90;;;;;;4931259;29;20290;-77
2022/07/30 07:48:55;;;;;;;7.97;7.20;;;28.20;99.90;;;;;;4930897;29;20208;-76
2022/07/30 07:51:29;;;;;;;8.03;7.40;;;28.30;99.90;;;;;;4927993;29;20199;-76
2022/07/30 07:53:56;;;;;;;8.17;7.37;;;28.40;99.90;;;;;;4933326;29;20227;-76
2022/07/30 07:56:24;;;;;;;6.87;6.27;;;28.40;99.90;;;;;;4925394;29;20199;-76
2022/07/30 07:58:52;;;;;;;6.33;5.73;;;28.40;99.90;;;;;;4933140;29;20246;-76
2022/07/30 08:01:21;;;;;;;6.80;6.20;;;28.60;99.90;;;;;;4928531;29;20692;-76
2022/07/30 08:04:08;;;;;;;7.77;7.03;;;28.60;99.90;;;;;;4931554;29;20225;-76
2022/07/30 08:06:53;;;;;;;7.30;6.70;;;28.70;99.90;;;;;;4924946;29;20214;-76
2022/07/30 08:09:39;;;;;;;7.67;6.87;;;28.80;99.90;;;;;;4930646;29;20226;-76
2022/07/30 08:12:14;;;;;;;6.70;6.23;;;28.80;99.90;;;;;;4934356;29;20191;-76
2022/07/30 08:15:10;;;;;;;7.40;6.70;;;28.90;99.50;;;;;;4927381;29;20602;-76
2022/07/30 08:17:58;;;;;;;7.30;6.70;;;29.20;99.90;;;;;;4932929;29;20246;-76
2022/07/30 08:20:44;;;;;;;6.53;6.00;;;29.10;99.70;;;;;;4932670;29;20318;-77
2022/07/30 08:23:13;;;;;;;6.10;5.50;;;29.20;99.30;;;;;;4925711;29;20699;-76
2022/07/30 08:25:40;;;;;;;6.17;5.57;;;29.40;98.90;;;;;;4928283;29;20204;-76
2022/07/30 08:28:07;;;;;;;5.60;5.10;;;29.30;99.30;;;;;;4931043;29;20239;-77
2022/07/30 08:30:34;;;;;;;5.97;5.40;;;29.30;99.40;;;;;;4928202;29;20223;-76
2022/07/30 08:33:01;;;;;;;7.10;6.50;;;29.60;99.30;;;;;;4937352;29;20207;-77
2022/07/30 08:35:27;;;;;;;6.67;6.17;;;29.70;97.70;;;;;;4928727;29;20215;-76
2022/07/30 08:37:56;;;;;;;7.47;6.93;;;29.70;99.30;;;;;;4936815;29;20735;-76
2022/07/30 08:40:26;;;;;;;7.20;6.60;;;30.00;98.40;;;;;;4932803;29;20220;-76
2022/07/30 08:43:05;;;;;;;7.00;6.50;;;30.00;97.50;;;;;;4936518;29;20297;-76
2022/07/30 08:45:33;;;;;;;7.23;6.73;;;30.00;96.80;;;;;;4930105;29;20696;-76
2022/07/30 08:48:10;;;;;;;6.70;5.50;;;30.00;96.30;;;;;;4936270;29;20199;-76
2022/07/30 08:50:45;;;;;;;6.53;6.03;;;29.10;96.30;;;;;;4933407;29;20226;-76
2022/07/30 08:53:34;;;;;;;6.33;5.83;;;28.40;96.80;;;;;;4934257;29;20218;-76
2022/07/30 08:56:01;;;;;;;4.23;3.83;;;28.20;97.40;;;;;;4935363;29;20219;-76
2022/07/30 08:58:32;;;;;;;3.10;2.80;;;28.00;96.90;;;;;;4935739;29;20254;-76
2022/07/30 09:00:59;;;;;;;4.47;3.70;;;27.60;97.40;;;;;;4931310;29;20283;-78
2022/07/30 09:03:29;;;;;;;4.47;3.27;;;27.30;98.20;;;;;;4926954;29;20229;-77
2022/07/30 09:06:00;;;;;;;6.30;5.70;;;27.20;98.30;;;;;;4930488;29;20230;-78
2022/07/30 09:08:27;;;;;;;6.40;5.80;;;27.70;98.30;;;;;;4937472;29;20674;-77
2022/07/30 09:10:57;;;;;;;6.20;5.60;;;28.30;97.10;;;;;;4939127;29;20223;-79
2022/07/30 09:13:26;;;;;;;6.03;5.17;;;28.30;96.30;;;;;;4932996;28;20195;-78
2022/07/30 09:15:54;;;;;;;5.37;4.97;;;28.60;97.10;;;;;;4942237;29;20326;-79
2022/07/30 09:18:29;;;;;;;6.87;3.93;;;29.20;95.00;;;;;;4936618;29;20751;-78
2022/07/30 09:20:56;;;;;;;2.80;2.60;;;29.10;96.00;;;;;;4940661;29;20223;-77
2022/07/30 09:23:23;;;;;;;6.30;5.70;;;29.00;96.20;;;;;;4941755;28;20203;-76
2022/07/30 09:26:15;;;;;;;4.90;4.50;;;28.50;95.70;;;;;;4925939;29;20210;-76
2022/07/30 09:29:16;;;;;;;5.90;4.90;;;28.80;95.80;;;;;;4934100;29;20217;-76
2022/07/30 09:32:03;;;;;;;6.43;6.03;;;29.20;94.50;;;;;;4928365;29;20210;-76
2022/07/30 09:34:48;;;;;;;4.97;2.93;;;29.30;95.30;;;;;;4930958;29;20309;-76
2022/07/30 09:37:35;;;;;;;5.20;3.07;;;29.90;93.30;;;;;;4931027;29;20293;-76
2022/07/30 09:40:34;;;;;;;2.97;2.63;;;30.00;94.10;;;;;;4933202;29;20230;-76
2022/07/30 09:43:44;;;;;;;6.43;5.93;;;30.40;93.40;;;;;;4935264;29;20580;-76
2022/07/30 09:46:19;;;;;;;6.30;5.70;;;30.60;92.80;;;;;;4933680;29;20198;-76
2022/07/30 09:48:46;;;;;;;5.97;5.53;;;30.80;92.90;;;;;;4930355;29;20203;-76
2022/07/30 09:51:13;;;;;;;6.20;5.70;;;30.80;91.40;;;;;;4931012;29;20219;-76
2022/07/30 09:53:54;;;;;;;5.00;4.60;;;30.90;91.60;;;;;;4932594;29;20681;-76
2022/07/30 09:56:28;;;;;;;6.53;6.03;;;31.00;91.30;;;;;;4931404;29;20227;-76
2022/07/30 09:58:56;;;;;;;4.63;4.27;;;31.20;92.10;;;;;;4935433;29;20218;-76
2022/07/30 10:01:23;;;;;;;5.90;5.50;;;31.30;90.80;;;;;;4933077;29;20286;-76
2022/07/30 10:03:50;;;;;;;6.50;5.90;;;31.40;90.40;;;;;;4930027;29;20262;-76
2022/07/30 10:06:36;;;;;;;6.60;6.00;;;31.60;90.10;;;;;;4931826;29;20292;-76
2022/07/30 10:09:09;;;;;;;5.90;5.50;;;31.70;88.90;;;;;;4936362;29;20199;-76
2022/07/30 10:11:37;;;;;;;6.20;5.70;;;31.60;89.50;;;;;;4936279;29;20628;-76
2022/07/30 10:14:05;;;;;;;6.03;5.63;;;31.70;90.20;;;;;;4936050;29;20203;-76
2022/07/30 10:16:32;;;;;;;6.50;6.00;;;31.30;88.10;;;;;;4935836;29;20235;-77
2022/07/30 10:19:00;;;;;;;6.13;5.73;;;30.40;90.50;;;;;;4935934;29;20570;-76
2022/07/30 10:21:55;;;;;;;4.27;3.87;;;29.70;90.70;;;;;;4930202;29;20271;-76
2022/07/30 10:24:52;;;;;;;5.83;5.33;;;28.80;91.30;;;;;;4930275;29;20222;-76
2022/07/30 10:27:20;;;;;;;6.40;4.33;;;28.40;91.90;;;;;;4935536;29;20203;-76
2022/07/30 10:30:08;;;;;;;6.00;5.40;;;28.70;91.60;;;;;;4936171;29;20626;-76
2022/07/30 10:32:37;;;;;;;2.50;2.20;;;29.00;91.00;;;;;;4934494;29;20204;-76
2022/07/30 10:35:05;;;;;;;3.00;2.43;;;29.10;92.60;;;;;;4935524;29;20219;-76
2022/07/30 10:37:32;;;;;;;3.87;2.63;;;29.40;91.20;;;;;;4930758;29;20207;-76
2022/07/30 10:40:06;;;;;;;2.47;2.20;;;29.40;90.60;;;;;;4933892;29;20258;-77
2022/07/30 10:42:52;;;;;;;5.57;5.07;;;29.40;90.90;;;;;;4930746;29;20266;-76
2022/07/30 10:45:25;;;;;;;5.20;4.80;;;29.60;90.90;;;;;;4933067;29;20195;-76
2022/07/30 10:47:54;;;;;;;5.30;4.90;;;29.80;90.20;;;;;;4934460;29;20199;-76
2022/07/30 10:50:25;;;;;;;5.20;4.80;;;29.60;87.90;;;;;;4932136;29;20262;-76
2022/07/30 10:52:54;;;;;;;5.10;4.60;;;29.60;90.70;;;;;;4933869;29;20199;-76
2022/07/30 10:55:23;;;;;;;5.00;4.50;;;29.80;90.70;;;;;;4931727;28;20337;-76
2022/07/30 10:58:04;;;;;;;5.03;4.73;;;30.00;91.00;;;;;;4930133;29;20204;-75
2022/07/30 11:00:34;;;;;;;5.53;5.13;;;30.10;89.50;;;;;;4933968;29;20278;-76
2022/07/30 11:03:28;;;;;;;5.40;5.00;;;29.90;87.30;;;;;;4936144;29;20211;-77
2022/07/30 11:06:25;;;;;;;5.40;5.00;;;29.80;89.60;;;;;;4932707;29;20266;-76
2022/07/30 11:08:52;;;;;;;5.60;5.20;;;29.90;88.80;;;;;;4929330;29;20203;-76
2022/07/30 11:11:44;;;;;;;5.97;5.30;;;29.80;90.00;;;;;;4934398;29;20243;-76
2022/07/30 11:14:11;;;;;;;5.70;5.20;;;29.70;90.50;;;;;;4925623;29;20736;-76
2022/07/30 11:17:01;;;;;;;4.40;4.10;;;29.70;90.40;;;;;;4935654;29;20719;-76
2022/07/30 11:19:28;;;;;;;4.27;3.97;;;29.80;88.40;;;;;;4928046;29;20444;-76
2022/07/30 11:22:23;;;;;;;3.77;3.50;;;29.70;89.10;;;;;;4929068;29;20204;-76
2022/07/30 11:24:50;;;;;;;2.20;2.10;;;29.60;88.40;;;;;;4926861;29;20242;-76
2022/07/30 11:27:37;;;;;;;5.00;4.60;;;29.40;88.60;;;;;;4934947;29;20199;-76
2022/07/30 11:30:07;;;;;;;5.00;4.60;;;29.70;89.70;;;;;;4932133;29;20223;-76
2022/07/30 11:32:36;;;;;;;5.60;5.20;;;29.60;90.20;;;;;;4929168;29;20230;-76
2022/07/30 11:35:18;;;;;;;5.03;4.60;;;29.40;90.60;;;;;;4930504;29;20354;-76
2022/07/30 11:38:03;;;;;;;4.50;4.10;;;29.00;88.60;;;;;;4926108;29;20212;-76
2022/07/30 11:40:31;;;;;;;3.43;3.13;;;28.50;90.70;;;;;;4935146;29;20742;-77
2022/07/30 11:43:20;;;;;;;5.10;4.70;;;28.50;90.90;;;;;;4935174;29;20266;-76
2022/07/30 11:45:48;;;;;;;2.57;2.37;;;28.10;89.80;;;;;;4935102;29;20199;-76
2022/07/30 11:48:19;;;;;;;5.07;4.67;;;27.80;90.10;;;;;;4931167;29;20668;-76
2022/07/30 11:50:47;;;;;;;2.67;2.00;;;27.70;92.30;;;;;;4929810;29;20222;-80
2022/07/30 11:53:17;;;;;;;2.73;2.10;;;27.90;92.00;;;;;;4928041;29;20606;-75
2022/07/30 11:55:47;;;;;;;4.87;4.47;;;28.10;92.20;;;;;;4948141;29;20228;-74
2022/07/30 11:58:26;;;;;;;5.57;5.07;;;28.10;91.00;;;;;;4930706;29;20291;-76
2022/07/30 12:00:54;;;;;;;3.73;2.30;;;27.90;90.10;;;;;;4930261;29;20219;-76
2022/07/30 12:03:25;;;;;;;3.83;3.47;;;27.70;91.70;;;;;;4927654;29;20200;-76
2022/07/30 12:05:52;;;;;;;5.03;4.53;;;27.40;90.00;;;;;;4927931;29;20203;-76
2022/07/30 12:08:19;;;;;;;2.00;1.90;;;27.30;92.50;;;;;;4942798;29;20207;-76
2022/07/30 12:10:56;;;;;;;2.33;2.23;;;27.30;92.10;;;;;;4930979;29;20856;-76
2022/07/30 12:13:23;;;;;;;5.33;5.03;;;27.40;92.40;;;;;;4932642;29;20281;-76
2022/07/30 12:15:50;;;;;;;5.60;5.20;;;27.60;91.70;;;;;;4930761;29;20227;-76
2022/07/30 12:18:26;;;;;;;2.90;2.43;;;27.70;90.70;;;;;;4932869;29;20203;-76
2022/07/30 12:20:55;;;;;;;3.90;2.33;;;27.80;91.60;;;;;;4929588;29;20779;-76
2022/07/30 12:23:22;;;;;;;3.37;3.00;;;27.90;89.60;;;;;;4929638;29;20196;-76
2022/07/30 12:25:49;;;;;;;5.00;4.70;;;27.50;89.20;;;;;;4928000;29;20200;-76
2022/07/30 12:28:21;;;;;;;5.00;4.60;;;27.30;90.70;;;;;;4934752;29;20207;-77
2022/07/30 12:30:48;;;;;;;5.20;4.90;;;27.10;90.90;;;;;;4933051;29;20223;-76
2022/07/30 12:33:15;;;;;;;5.00;4.70;;;27.10;92.80;;;;;;4932648;29;20207;-76
2022/07/30 12:35:46;;;;;;;5.03;4.70;;;27.10;92.60;;;;;;4931933;29;20596;-76
2022/07/30 12:38:14;;;;;;;5.10;4.70;;;27.40;91.50;;;;;;4928754;29;20669;-76
2022/07/30 12:40:55;;;;;;;5.27;4.90;;;27.60;90.70;;;;;;4930510;29;20254;-76
2022/07/30 12:43:45;;;;;;;2.17;2.03;;;27.70;88.10;;;;;;4924977;29;20211;-76
2022/07/30 12:46:15;;;;;;;2.30;2.10;;;27.90;90.70;;;;;;4926729;29;20191;-76
2022/07/30 12:48:53;;;;;;;2.53;2.10;;;28.00;91.00;;;;;;4934320;29;20207;-76
2022/07/30 12:51:23;;;;;;;4.10;2.20;;;28.00;91.50;;;;;;4920809;29;20250;-75
2022/07/30 12:53:50;;;;;;;4.27;3.97;;;27.90;91.20;;;;;;4928934;29;20200;-76
2022/07/30 12:56:20;;;;;;;4.50;4.10;;;27.90;90.10;;;;;;4932109;29;20594;-76
2022/07/30 12:58:47;;;;;;;4.20;3.80;;;27.80;90.20;;;;;;4926793;29;20214;-76
2022/07/30 13:01:14;;;;;;;3.30;3.10;;;27.80;90.60;;;;;;4935012;29;20226;-77
2022/07/30 13:03:41;;;;;;;2.90;2.70;;;27.80;90.60;;;;;;4932833;29;20211;-76
2022/07/30 13:06:13;;;;;;;3.17;2.97;;;27.80;91.10;;;;;;4926819;29;20210;-76
2022/07/30 13:08:52;;;;;;;3.27;3.00;;;27.70;90.80;;;;;;4929324;29;20204;-76
2022/07/30 13:11:20;;;;;;;1.90;1.80;;;27.60;90.20;;;;;;4933620;29;20230;-76
2022/07/30 13:13:48;;;;;;;2.63;1.90;;;27.70;91.50;;;;;;4931567;29;20258;-76
2022/07/30 13:16:15;;;;;;;2.50;2.10;;;27.90;89.60;;;;;;4927730;29;20215;-76
2022/07/30 13:18:43;;;;;;;2.13;1.93;;;28.10;90.40;;;;;;4931484;29;20211;-76
2022/07/30 13:21:10;;;;;;;4.77;4.37;;;28.30;90.70;;;;;;4938019;29;20219;-76